Time;durP1;ratioP1;P1;durP2;ratioP2;P2;SDS_P1;SDS_P2;PMS_P1;PMS_P2;Temp;Humidity;BMP_temperature;BMP_pressure;BME280_temperature;BME280_humidity;BME280_pressure;Samples;Min_cycle;Max_cycle;Signal;HPM_P1;HPM_P2
2023/09/12 00:01:32;;;;;;;7.40;3.05;;;19.60;99.90;;;;;;4992208;28;20027;-83
2023/09/12 00:03:58;;;;;;;6.95;3.80;;;19.60;99.90;;;;;;4992521;28;20025;-84
2023/09/12 00:06:23;;;;;;;6.25;3.28;;;19.60;99.90;;;;;;4991764;28;20022;-86
2023/09/12 00:08:49;;;;;;;8.13;3.50;;;19.60;99.90;;;;;;4991740;28;20433;-84
2023/09/12 00:11:15;;;;;;;6.93;3.28;;;19.60;99.90;;;;;;4990407;28;20026;-86
2023/09/12 00:13:41;;;;;;;6.88;3.55;;;19.60;99.90;;;;;;4991243;28;20026;-85
2023/09/12 00:16:09;;;;;;;7.57;3.53;;;19.70;99.90;;;;;;4991802;28;20061;-86
2023/09/12 00:18:34;;;;;;;4.07;3.28;;;19.70;99.90;;;;;;4991336;28;20034;-86
2023/09/12 00:21:00;;;;;;;5.78;3.75;;;19.70;99.90;;;;;;4990295;28;20037;-85
2023/09/12 00:23:26;;;;;;;8.40;4.20;;;19.70;99.90;;;;;;4990201;28;20031;-84
2023/09/12 00:25:52;;;;;;;7.18;4.10;;;19.70;99.90;;;;;;4991419;28;20398;-86
2023/09/12 00:28:18;;;;;;;6.43;3.53;;;19.80;99.90;;;;;;4990162;28;20423;-85
2023/09/12 00:30:44;;;;;;;5.97;3.85;;;19.80;99.90;;;;;;4990597;28;20037;-83
2023/09/12 00:33:10;;;;;;;7.55;4.07;;;19.70;99.90;;;;;;4991331;28;20097;-85
2023/09/12 00:35:36;;;;;;;5.95;4.40;;;19.60;99.90;;;;;;4991436;28;20114;-85
2023/09/12 00:38:01;;;;;;;5.18;3.28;;;19.50;99.90;;;;;;4991990;28;20034;-86
2023/09/12 00:40:27;;;;;;;6.40;4.35;;;19.50;99.90;;;;;;4990275;28;20026;-83
2023/09/12 00:42:53;;;;;;;7.15;4.45;;;19.50;99.90;;;;;;4989712;28;20117;-84
2023/09/12 00:45:18;;;;;;;6.40;4.40;;;19.60;99.90;;;;;;4991146;28;20085;-86
2023/09/12 00:47:45;;;;;;;7.43;4.45;;;19.50;99.90;;;;;;4989836;28;20121;-85
2023/09/12 00:50:11;;;;;;;6.32;4.15;;;19.50;99.90;;;;;;4990421;28;20084;-86
2023/09/12 00:52:38;;;;;;;8.18;4.28;;;19.50;99.90;;;;;;4972746;28;20544;-85
2023/09/12 00:55:05;;;;;;;7.90;4.47;;;19.50;99.90;;;;;;4970605;28;20019;-83
2023/09/12 00:57:32;;;;;;;7.30;4.20;;;19.40;99.90;;;;;;4972087;28;20042;-85
2023/09/12 00:59:58;;;;;;;5.27;4.40;;;19.40;99.90;;;;;;4973591;28;20393;-86
2023/09/12 01:02:25;;;;;;;6.47;4.18;;;19.40;99.90;;;;;;4990764;28;20627;-83
2023/09/12 01:04:51;;;;;;;6.15;4.22;;;19.40;99.90;;;;;;4990809;28;20038;-85
2023/09/12 01:07:17;;;;;;;5.75;4.03;;;19.40;99.90;;;;;;4990686;28;20379;-84
2023/09/12 01:09:42;;;;;;;4.70;3.92;;;19.50;99.90;;;;;;4990011;28;20034;-84
2023/09/12 01:12:08;;;;;;;6.00;4.20;;;19.50;99.90;;;;;;4969867;28;20031;-84
2023/09/12 01:14:34;;;;;;;6.03;4.13;;;19.50;99.90;;;;;;4971982;28;20077;-84
2023/09/12 01:17:01;;;;;;;4.10;3.38;;;19.50;99.90;;;;;;4970525;28;20023;-83
2023/09/12 01:19:27;;;;;;;7.97;4.22;;;19.50;99.90;;;;;;4971153;28;20037;-86
2023/09/12 01:22:03;;;;;;;6.80;4.18;;;19.50;99.90;;;;;;4988164;28;20022;-85
2023/09/12 01:24:56;;;;;;;7.85;4.00;;;19.50;99.90;;;;;;4990259;28;20501;-83
2023/09/12 01:27:31;;;;;;;4.20;3.67;;;19.50;99.90;;;;;;4990420;28;20036;-83
2023/09/12 01:30:00;;;;;;;8.13;4.30;;;19.40;99.90;;;;;;4989717;28;20057;-84
2023/09/12 01:32:27;;;;;;;8.98;4.15;;;19.40;99.90;;;;;;4988976;28;20030;-86
2023/09/12 01:34:53;;;;;;;5.88;3.88;;;19.40;99.90;;;;;;4990172;28;20030;-87
2023/09/12 01:37:18;;;;;;;6.05;4.30;;;19.30;99.90;;;;;;4990140;28;20385;-85
2023/09/12 01:39:44;;;;;;;9.05;4.15;;;19.30;99.90;;;;;;4989744;28;20022;-83
2023/09/12 01:42:14;;;;;;;8.20;4.75;;;19.30;99.90;;;;;;4969306;28;20037;-85
2023/09/12 01:44:41;;;;;;;6.05;4.40;;;19.20;99.90;;;;;;4985455;28;20038;-85
2023/09/12 01:47:07;;;;;;;10.57;4.50;;;19.20;99.90;;;;;;4970794;28;20019;-83
2023/09/12 01:49:33;;;;;;;7.47;4.60;;;19.30;99.90;;;;;;4971483;28;20046;-84
2023/09/12 01:52:00;;;;;;;6.28;4.38;;;19.20;99.90;;;;;;4985603;28;20395;-83
2023/09/12 01:54:27;;;;;;;5.53;4.20;;;19.20;99.90;;;;;;4988393;28;20038;-84
2023/09/12 01:56:57;;;;;;;6.55;4.47;;;19.20;99.90;;;;;;4989844;28;20023;-86
2023/09/12 01:59:23;;;;;;;5.70;4.45;;;19.20;99.90;;;;;;4989919;28;20035;-83
2023/09/12 02:01:49;;;;;;;10.43;4.90;;;19.20;99.90;;;;;;4987888;28;20022;-84
2023/09/12 02:04:14;;;;;;;6.45;5.00;;;19.20;99.90;;;;;;4989740;28;20559;-85
2023/09/12 02:06:40;;;;;;;7.90;4.70;;;19.20;99.90;;;;;;4989810;28;20026;-84
2023/09/12 02:09:06;;;;;;;6.32;4.57;;;19.00;99.90;;;;;;4990493;28;20101;-84
2023/09/12 02:11:31;;;;;;;6.90;4.68;;;19.10;99.90;;;;;;4989003;28;20041;-84
2023/09/12 02:13:57;;;;;;;13.23;5.10;;;19.00;99.90;;;;;;4986650;28;20611;-84
2023/09/12 02:16:22;;;;;;;7.85;4.82;;;19.00;99.90;;;;;;4988351;28;20084;-83
2023/09/12 02:18:48;;;;;;;7.90;4.65;;;19.00;99.90;;;;;;4989584;28;20528;-84
2023/09/12 02:21:15;;;;;;;7.85;4.60;;;19.00;99.90;;;;;;4989577;28;20030;-84
2023/09/12 02:23:41;;;;;;;7.03;4.75;;;19.00;99.90;;;;;;4988636;28;20030;-86
2023/09/12 02:26:07;;;;;;;8.77;5.13;;;19.00;99.90;;;;;;4990371;28;20117;-84
2023/09/12 02:28:32;;;;;;;7.72;5.68;;;19.00;99.90;;;;;;4988356;28;20076;-86
2023/09/12 02:30:58;;;;;;;6.38;5.03;;;19.00;99.90;;;;;;4989478;28;20764;-85
2023/09/12 02:33:23;;;;;;;8.82;5.40;;;19.00;99.90;;;;;;4989512;28;20026;-85
2023/09/12 02:35:49;;;;;;;8.52;5.03;;;19.10;99.90;;;;;;4989575;28;20030;-84
2023/09/12 02:38:16;;;;;;;8.10;4.82;;;19.20;99.90;;;;;;4986816;28;20045;-84
2023/09/12 02:40:41;;;;;;;14.32;5.85;;;19.20;99.90;;;;;;4989400;28;20058;-84
2023/09/12 02:43:07;;;;;;;7.15;5.10;;;19.20;99.90;;;;;;4990342;28;20065;-83
2023/09/12 02:45:32;;;;;;;6.57;4.72;;;19.10;99.90;;;;;;4989194;28;20490;-84
2023/09/12 02:47:58;;;;;;;7.50;4.82;;;19.20;99.90;;;;;;4988617;28;20054;-85
2023/09/12 02:50:24;;;;;;;10.00;5.15;;;19.20;99.90;;;;;;4987956;28;20444;-84
2023/09/12 02:52:49;;;;;;;6.85;4.70;;;19.20;99.90;;;;;;4989313;28;20034;-87
2023/09/12 02:55:15;;;;;;;10.10;5.55;;;19.30;99.90;;;;;;4988177;28;20517;-85
2023/09/12 02:57:40;;;;;;;6.75;5.28;;;19.30;99.90;;;;;;4989267;28;20038;-83
2023/09/12 03:00:08;;;;;;;8.15;5.18;;;19.30;99.90;;;;;;4988791;28;20404;-83
2023/09/12 03:02:34;;;;;;;8.27;5.65;;;19.30;99.90;;;;;;4972473;28;20030;-83
2023/09/12 03:05:01;;;;;;;8.23;5.45;;;19.30;99.90;;;;;;4969758;28;20276;-85
2023/09/12 03:07:27;;;;;;;7.75;5.22;;;19.20;99.90;;;;;;4984586;28;20023;-86
2023/09/12 03:09:52;;;;;;;11.07;5.13;;;19.40;99.90;;;;;;4984651;28;20118;-85
2023/09/12 03:12:18;;;;;;;12.10;5.50;;;19.30;99.90;;;;;;4969769;28;20098;-84
2023/09/12 03:14:43;;;;;;;8.30;5.85;;;19.30;99.90;;;;;;4980731;28;20022;-84
2023/09/12 03:17:09;;;;;;;10.27;5.75;;;19.20;99.90;;;;;;4988491;28;20154;-83
2023/09/12 03:19:34;;;;;;;9.60;5.90;;;19.20;99.90;;;;;;4989040;28;20022;-84
2023/09/12 03:22:00;;;;;;;8.68;5.45;;;19.10;99.90;;;;;;4989317;28;20843;-86
2023/09/12 03:24:28;;;;;;;8.77;5.88;;;19.10;99.90;;;;;;4991018;28;20038;-86
2023/09/12 03:26:54;;;;;;;8.13;6.13;;;19.10;99.90;;;;;;4989904;28;20030;-84
2023/09/12 03:29:19;;;;;;;8.43;5.93;;;19.10;99.90;;;;;;4991145;28;20161;-85
2023/09/12 03:31:45;;;;;;;8.30;6.18;;;19.10;99.90;;;;;;4991270;28;20097;-83
2023/09/12 03:34:11;;;;;;;8.55;5.72;;;19.10;99.90;;;;;;4992027;28;20034;-84
2023/09/12 03:36:36;;;;;;;14.35;6.38;;;19.10;99.90;;;;;;4992338;28;20138;-86
2023/09/12 03:39:05;;;;;;;14.40;6.43;;;19.10;99.90;;;;;;4992329;28;20517;-84
2023/09/12 03:41:30;;;;;;;7.20;5.65;;;19.10;99.90;;;;;;4992316;28;20113;-84
2023/09/12 03:43:56;;;;;;;11.52;6.05;;;19.10;99.90;;;;;;4974003;28;20106;-84
2023/09/12 03:46:22;;;;;;;10.02;5.88;;;19.10;99.90;;;;;;4972870;28;20050;-83
2023/09/12 03:48:47;;;;;;;9.48;6.13;;;19.20;99.90;;;;;;4971456;28;20026;-84
2023/09/12 03:51:13;;;;;;;9.82;5.97;;;19.20;99.90;;;;;;4971396;28;20022;-87
2023/09/12 03:53:39;;;;;;;8.40;5.80;;;19.20;99.90;;;;;;4972265;28;20077;-85
2023/09/12 03:56:05;;;;;;;7.28;5.60;;;19.20;99.90;;;;;;4979191;28;20025;-86
2023/09/12 03:58:30;;;;;;;8.65;5.97;;;19.30;99.90;;;;;;4991706;28;20399;-87
2023/09/12 04:00:56;;;;;;;9.02;6.32;;;19.30;99.90;;;;;;4987799;28;20018;-92
2023/09/12 04:03:21;;;;;;;12.85;6.53;;;19.30;99.90;;;;;;4979342;28;20039;-91
2023/09/12 04:05:47;;;;;;;7.30;5.80;;;19.40;99.90;;;;;;4973587;28;20019;-89
2023/09/12 04:08:13;;;;;;;10.15;5.97;;;19.30;99.90;;;;;;4973849;28;20039;-90
2023/09/12 04:10:39;;;;;;;9.38;5.93;;;19.30;99.90;;;;;;4973871;28;20033;-90
2023/09/12 04:13:05;;;;;;;9.07;5.78;;;19.30;99.90;;;;;;4982202;28;20038;-90
2023/09/12 04:15:30;;;;;;;10.90;5.88;;;19.30;99.90;;;;;;4991733;28;20047;-87
2023/09/12 04:17:56;;;;;;;8.30;5.70;;;19.30;99.90;;;;;;4992445;28;20505;-91
2023/09/12 04:20:21;;;;;;;8.75;5.55;;;19.30;99.90;;;;;;4991431;28;20022;-92
2023/09/12 04:22:47;;;;;;;7.25;5.35;;;19.30;99.90;;;;;;4980952;28;20550;-85
2023/09/12 04:25:12;;;;;;;8.18;5.15;;;19.30;99.90;;;;;;4988520;28;20034;-85
2023/09/12 04:27:38;;;;;;;6.57;4.93;;;19.20;99.90;;;;;;4991640;28;20034;-87
2023/09/12 04:30:04;;;;;;;6.85;4.95;;;19.20;99.90;;;;;;4990907;28;20018;-89
2023/09/12 04:32:32;;;;;;;8.60;5.30;;;19.30;99.90;;;;;;4980136;28;20418;-90
2023/09/12 04:34:58;;;;;;;8.25;5.60;;;19.20;99.90;;;;;;4988131;28;20019;-88
2023/09/12 04:37:23;;;;;;;9.38;5.68;;;19.20;99.90;;;;;;4997086;28;20418;-90
2023/09/12 04:39:49;;;;;;;8.80;5.47;;;19.20;99.90;;;;;;4989106;28;20025;-89
2023/09/12 04:42:15;;;;;;;8.35;5.32;;;19.20;99.90;;;;;;4996766;28;20078;-90
2023/09/12 04:44:41;;;;;;;9.15;5.20;;;19.20;99.90;;;;;;4990152;28;20030;-88
2023/09/12 04:47:08;;;;;;;7.28;5.43;;;19.20;99.90;;;;;;4993279;28;20037;-89
2023/09/12 04:49:33;;;;;;;5.75;4.85;;;19.20;99.90;;;;;;4994935;28;20036;-88
2023/09/12 04:51:59;;;;;;;8.50;5.05;;;19.20;99.90;;;;;;4991601;28;20101;-86
2023/09/12 04:54:25;;;;;;;8.10;5.20;;;19.20;99.90;;;;;;4983174;28;20114;-91
2023/09/12 04:56:50;;;;;;;9.32;5.47;;;19.20;99.90;;;;;;4971571;28;20023;-88
2023/09/12 04:59:16;;;;;;;7.13;5.53;;;19.20;99.90;;;;;;4972907;28;20465;-89
2023/09/12 05:01:42;;;;;;;10.95;5.00;;;19.30;99.90;;;;;;4973343;28;20023;-90
2023/09/12 05:04:08;;;;;;;7.90;5.35;;;19.20;99.90;;;;;;4971494;28;20117;-89
2023/09/12 05:06:34;;;;;;;7.88;5.05;;;19.30;99.90;;;;;;4972564;28;20023;-89
2023/09/12 05:08:59;;;;;;;6.43;4.78;;;19.40;99.90;;;;;;4975889;28;20026;-90
2023/09/12 05:11:25;;;;;;;7.63;4.97;;;19.30;99.90;;;;;;4988063;28;20081;-87
2023/09/12 05:13:51;;;;;;;8.13;5.53;;;19.40;99.90;;;;;;4982727;28;20066;-88
2023/09/12 05:16:17;;;;;;;8.80;5.43;;;19.40;99.90;;;;;;4971641;28;20462;-89
2023/09/12 05:18:43;;;;;;;8.43;4.63;;;19.30;99.90;;;;;;4983859;28;20050;-86
2023/09/12 05:21:09;;;;;;;8.90;5.10;;;19.30;99.90;;;;;;4991769;28;20105;-89
2023/09/12 05:23:34;;;;;;;8.43;5.70;;;19.30;99.90;;;;;;4989613;28;20042;-88
2023/09/12 05:26:00;;;;;;;7.57;5.40;;;19.30;99.90;;;;;;4988971;28;20444;-88
2023/09/12 05:28:26;;;;;;;10.25;4.85;;;19.20;99.90;;;;;;4990985;28;20026;-90
2023/09/12 05:30:52;;;;;;;9.73;5.35;;;19.30;99.90;;;;;;4990002;28;20030;-90
2023/09/12 05:33:18;;;;;;;6.93;5.43;;;19.30;99.90;;;;;;4988365;28;20405;-85
2023/09/12 05:35:44;;;;;;;8.93;5.53;;;19.30;99.90;;;;;;4985629;28;20031;-89
2023/09/12 05:38:10;;;;;;;7.60;5.57;;;19.10;99.90;;;;;;4989636;28;20039;-89
2023/09/12 05:40:36;;;;;;;8.00;5.65;;;19.10;99.90;;;;;;4988479;28;20033;-87
2023/09/12 05:43:02;;;;;;;9.57;5.40;;;19.20;99.90;;;;;;4990101;28;20026;-90
2023/09/12 05:45:30;;;;;;;8.93;5.72;;;19.10;99.90;;;;;;4989674;28;20019;-91
2023/09/12 05:47:56;;;;;;;;;;;19.10;99.90;;;;;;4988197;28;20027;-87
2023/09/12 05:50:21;;;;;;;7.75;6.05;;;19.00;99.90;;;;;;4982269;28;19905;-87
2023/09/12 05:52:47;;;;;;;7.72;5.70;;;19.00;99.90;;;;;;4982293;28;20059;-88
2023/09/12 05:55:13;;;;;;;8.07;5.57;;;19.00;99.90;;;;;;4970392;28;20126;-85
2023/09/12 05:57:38;;;;;;;11.70;6.70;;;19.00;99.90;;;;;;4989415;28;20478;-84
2023/09/12 06:00:05;;;;;;;8.18;6.32;;;19.00;99.90;;;;;;4989541;28;20023;-85
2023/09/12 06:02:33;;;;;;;11.50;6.32;;;19.00;99.90;;;;;;4973498;28;20053;-84
2023/09/12 06:04:58;;;;;;;14.50;6.55;;;19.00;99.90;;;;;;4973180;28;20077;-83
2023/09/12 06:07:25;;;;;;;11.77;6.07;;;19.00;99.90;;;;;;4989935;28;20031;-88
2023/09/12 06:09:50;;;;;;;8.38;6.03;;;19.00;99.90;;;;;;4989195;28;20030;-84
2023/09/12 06:12:16;;;;;;;7.55;5.97;;;19.00;99.90;;;;;;4990749;28;20434;-84
2023/09/12 06:14:41;;;;;;;19.42;7.03;;;19.00;99.90;;;;;;4987666;28;20026;-85
2023/09/12 06:17:07;;;;;;;6.57;5.50;;;19.00;99.90;;;;;;4988217;28;20027;-87
2023/09/12 06:19:33;;;;;;;7.95;6.22;;;19.00;99.90;;;;;;4988520;28;20089;-84
2023/09/12 06:21:58;;;;;;;8.18;6.28;;;18.90;99.90;;;;;;4987874;28;20386;-84
2023/09/12 06:24:24;;;;;;;7.90;5.70;;;19.00;99.90;;;;;;4983171;28;20054;-85
2023/09/12 06:26:50;;;;;;;9.27;6.05;;;19.00;99.90;;;;;;4993380;28;20037;-85
2023/09/12 06:29:16;;;;;;;8.68;6.05;;;19.00;99.90;;;;;;5008499;28;20228;-84
2023/09/12 06:31:42;;;;;;;9.95;6.47;;;18.90;99.90;;;;;;4991102;28;20113;-87
2023/09/12 06:34:08;;;;;;;8.75;6.00;;;19.00;99.90;;;;;;4989808;28;20033;-85
2023/09/12 06:36:34;;;;;;;7.22;5.82;;;19.10;99.90;;;;;;4988444;28;20036;-84
2023/09/12 06:39:00;;;;;;;7.60;5.88;;;19.10;99.90;;;;;;4989087;28;20038;-84
2023/09/12 06:41:27;;;;;;;10.85;6.57;;;19.10;99.90;;;;;;4989620;28;20113;-84
2023/09/12 06:43:53;;;;;;;9.95;6.65;;;19.10;99.90;;;;;;5007326;28;20375;-85
2023/09/12 06:46:18;;;;;;;13.18;6.63;;;19.10;99.90;;;;;;5010039;28;20033;-83
2023/09/12 06:48:50;;;;;;;8.55;6.00;;;19.20;99.90;;;;;;5007842;28;20033;-83
2023/09/12 06:51:16;;;;;;;8.35;6.03;;;19.30;99.90;;;;;;5009178;28;20026;-83
2023/09/12 06:53:41;;;;;;;11.95;7.00;;;19.40;99.90;;;;;;5009132;28;20259;-84
2023/09/12 06:56:07;;;;;;;9.30;6.57;;;19.30;99.90;;;;;;4996627;28;20034;-88
2023/09/12 06:58:33;;;;;;;11.55;7.00;;;19.40;99.90;;;;;;4992512;28;20039;-88
2023/09/12 07:01:05;;;;;;;9.07;6.70;;;19.40;99.90;;;;;;4993442;28;20093;-86
2023/09/12 07:03:32;;;;;;;12.02;7.05;;;19.40;99.90;;;;;;4992828;28;20542;-88
2023/09/12 07:05:58;;;;;;;14.20;6.72;;;19.40;99.90;;;;;;4993134;28;20094;-86
2023/09/12 07:08:24;;;;;;;13.75;7.28;;;19.30;99.90;;;;;;4991931;28;20065;-86
2023/09/12 07:10:49;;;;;;;11.35;7.10;;;19.30;99.90;;;;;;4992394;28;20027;-85
2023/09/12 07:13:15;;;;;;;9.43;6.57;;;19.30;99.90;;;;;;4991349;28;20034;-85
2023/09/12 07:15:41;;;;;;;19.85;7.35;;;19.30;99.90;;;;;;4993041;28;20022;-85
2023/09/12 07:18:06;;;;;;;9.13;6.78;;;19.40;99.90;;;;;;4992801;28;20031;-84
2023/09/12 07:20:33;;;;;;;8.80;6.80;;;19.30;99.90;;;;;;4991636;28;20081;-87
2023/09/12 07:22:59;;;;;;;9.20;6.20;;;19.40;99.90;;;;;;4992966;28;20038;-87
2023/09/12 07:25:25;;;;;;;8.68;5.95;;;19.50;99.90;;;;;;4993007;28;20027;-87
2023/09/12 07:27:51;;;;;;;8.30;6.40;;;19.50;99.90;;;;;;4993577;28;20044;-84
2023/09/12 07:30:18;;;;;;;8.32;6.15;;;19.50;99.90;;;;;;4991132;28;20026;-86
2023/09/12 07:32:44;;;;;;;10.43;5.53;;;19.50;99.90;;;;;;4991396;28;20077;-86
2023/09/12 07:35:10;;;;;;;8.75;6.32;;;19.60;99.90;;;;;;4992480;28;20449;-85
2023/09/12 07:37:36;;;;;;;8.77;5.97;;;19.50;99.90;;;;;;4992620;28;20042;-84
2023/09/12 07:40:09;;;;;;;8.63;6.18;;;19.60;99.90;;;;;;4992285;28;20023;-86
2023/09/12 07:42:34;;;;;;;9.77;6.03;;;19.60;99.90;;;;;;4992496;28;20033;-84
2023/09/12 07:45:00;;;;;;;9.02;5.40;;;19.70;99.90;;;;;;4992344;28;20022;-84
2023/09/12 07:47:26;;;;;;;9.48;5.95;;;19.70;99.90;;;;;;4992101;28;20022;-83
2023/09/12 07:49:55;;;;;;;8.55;6.10;;;19.70;99.90;;;;;;4993103;28;20057;-87
2023/09/12 07:52:21;;;;;;;6.70;5.50;;;19.80;99.90;;;;;;4991773;28;20049;-84
2023/09/12 07:54:49;;;;;;;8.63;5.68;;;19.80;99.90;;;;;;4992133;28;20030;-84
2023/09/12 07:57:14;;;;;;;8.02;5.75;;;19.80;99.90;;;;;;4992456;28;20028;-86
2023/09/12 07:59:40;;;;;;;7.10;5.60;;;19.90;99.90;;;;;;4992194;28;20113;-85
2023/09/12 08:02:06;;;;;;;10.63;5.82;;;19.90;99.90;;;;;;4992091;28;20026;-85
2023/09/12 08:04:31;;;;;;;7.97;5.43;;;19.90;99.90;;;;;;4991698;28;20072;-88
2023/09/12 08:06:57;;;;;;;11.32;6.20;;;19.90;99.90;;;;;;4992349;28;20037;-87
2023/09/12 08:09:22;;;;;;;6.90;5.32;;;19.90;99.90;;;;;;4991845;28;20022;-86
2023/09/12 08:11:48;;;;;;;9.35;5.55;;;19.90;99.90;;;;;;4992039;28;20026;-86
2023/09/12 08:14:13;;;;;;;7.72;5.95;;;20.00;99.90;;;;;;4991981;28;20069;-88
2023/09/12 08:16:39;;;;;;;8.35;5.35;;;19.90;99.90;;;;;;4992003;28;20402;-85
2023/09/12 08:19:05;;;;;;;7.95;6.32;;;20.00;99.90;;;;;;4991827;28;20027;-86
2023/09/12 08:21:30;;;;;;;9.43;6.05;;;20.00;99.90;;;;;;4991827;28;20031;-87
2023/09/12 08:23:56;;;;;;;7.55;5.85;;;20.00;99.90;;;;;;4992408;28;20034;-87
2023/09/12 08:26:22;;;;;;;10.30;6.55;;;20.00;99.90;;;;;;4992180;28;20029;-89
2023/09/12 08:28:47;;;;;;;10.13;5.88;;;20.00;99.90;;;;;;4991785;28;20041;-85
2023/09/12 08:31:13;;;;;;;9.25;5.80;;;20.10;99.90;;;;;;4991723;28;20034;-85
2023/09/12 08:33:39;;;;;;;8.82;6.07;;;20.00;99.90;;;;;;4990430;28;20033;-85
2023/09/12 08:36:04;;;;;;;9.23;6.32;;;19.90;99.90;;;;;;4990109;28;20053;-85
2023/09/12 08:38:30;;;;;;;9.77;6.10;;;20.00;99.90;;;;;;4989562;28;20074;-86
2023/09/12 08:40:57;;;;;;;11.43;6.05;;;19.90;99.90;;;;;;4992384;28;20026;-86
2023/09/12 08:43:22;;;;;;;7.47;5.88;;;20.00;99.90;;;;;;4991448;28;20022;-87
2023/09/12 08:45:48;;;;;;;9.90;5.53;;;20.00;99.90;;;;;;4991219;28;20236;-84
2023/09/12 08:48:15;;;;;;;7.70;5.57;;;20.10;99.90;;;;;;4988023;28;20058;-84
2023/09/12 08:50:42;;;;;;;9.80;6.10;;;20.20;99.90;;;;;;4989717;28;20121;-87
2023/09/12 08:53:07;;;;;;;10.40;5.50;;;20.30;99.90;;;;;;4990350;28;20026;-85
2023/09/12 08:55:35;;;;;;;7.70;5.75;;;20.40;99.90;;;;;;4990177;28;20045;-85
2023/09/12 08:58:03;;;;;;;7.63;5.25;;;20.30;99.90;;;;;;4972492;28;20077;-85
2023/09/12 09:00:30;;;;;;;8.18;5.38;;;20.50;99.90;;;;;;4989466;28;20045;-84
2023/09/12 09:02:56;;;;;;;9.20;5.47;;;20.70;99.90;;;;;;4987316;28;20129;-83
2023/09/12 09:05:23;;;;;;;8.52;5.38;;;20.80;99.90;;;;;;4990468;28;20037;-85
2023/09/12 09:07:49;;;;;;;6.95;5.13;;;20.70;99.90;;;;;;4989050;28;20065;-85
2023/09/12 09:10:19;;;;;;;7.68;5.22;;;20.60;99.90;;;;;;4989896;28;20026;-84
2023/09/12 09:12:46;;;;;;;8.15;4.65;;;20.60;99.90;;;;;;4989589;28;20060;-85
2023/09/12 09:15:28;;;;;;;8.23;4.70;;;20.70;99.90;;;;;;4992637;28;20405;-86
2023/09/12 09:17:57;;;;;;;6.38;3.63;;;20.90;99.90;;;;;;5010149;28;20823;-88
2023/09/12 09:20:25;;;;;;;6.00;3.40;;;21.10;99.90;;;;;;4997418;28;20559;-89
2023/09/12 09:23:05;;;;;;;7.60;3.70;;;21.10;99.90;;;;;;4990703;28;20041;-88
2023/09/12 09:25:34;;;;;;;4.68;2.60;;;21.40;99.90;;;;;;4991153;28;20081;-83
2023/09/12 09:28:04;;;;;;;4.18;3.10;;;21.60;99.90;;;;;;4991374;28;20018;-88
2023/09/12 09:30:40;;;;;;;4.68;2.50;;;21.80;99.90;;;;;;4990274;28;20022;-87
2023/09/12 09:33:06;;;;;;;2.30;2.10;;;21.60;99.90;;;;;;5007437;28;20444;-87
2023/09/12 09:35:31;;;;;;;5.38;2.20;;;21.60;99.90;;;;;;5010304;28;20014;-86
2023/09/12 09:37:57;;;;;;;3.42;2.33;;;21.70;99.90;;;;;;5009829;28;20038;-88
2023/09/12 09:40:23;;;;;;;3.85;2.13;;;21.70;99.90;;;;;;5010504;28;20026;-86
2023/09/12 09:42:58;;;;;;;3.08;2.20;;;21.90;99.90;;;;;;5009961;28;20029;-86
2023/09/12 09:45:24;;;;;;;4.43;2.40;;;21.80;99.90;;;;;;5001855;28;20027;-86
2023/09/12 09:47:52;;;;;;;4.90;2.60;;;21.80;99.90;;;;;;4990145;28;20026;-86
2023/09/12 09:50:18;;;;;;;5.18;2.17;;;21.70;99.90;;;;;;4990439;28;20029;-86
2023/09/12 09:52:44;;;;;;;2.67;1.90;;;21.80;99.90;;;;;;4989235;28;20022;-88
2023/09/12 09:55:14;;;;;;;3.47;2.20;;;21.80;99.90;;;;;;4990058;28;20029;-87
2023/09/12 09:57:40;;;;;;;5.10;2.00;;;21.90;99.90;;;;;;4990306;28;20026;-85
2023/09/12 10:00:08;;;;;;;3.83;2.22;;;22.00;99.90;;;;;;4990223;28;20030;-88
2023/09/12 10:02:36;;;;;;;4.53;2.40;;;22.00;99.90;;;;;;4989984;28;20025;-85
2023/09/12 10:05:05;;;;;;;;;;;22.20;99.90;;;;;;4989322;28;20022;-85
2023/09/12 10:07:33;;;;;;;7.40;2.70;;;22.30;99.90;;;;;;4990736;28;19921;-86
2023/09/12 10:10:03;;;;;;;8.95;3.70;;;22.30;99.90;;;;;;4991064;28;20014;-87
2023/09/12 10:12:31;;;;;;;5.38;3.05;;;21.90;99.90;;;;;;4989708;28;20034;-88
2023/09/12 10:15:01;;;;;;;6.13;3.50;;;22.00;99.90;;;;;;4989887;28;20101;-87
2023/09/12 10:17:39;;;;;;;5.07;3.35;;;22.00;99.90;;;;;;4987502;28;20038;-84
2023/09/12 10:20:13;;;;;;;4.43;2.67;;;22.10;99.90;;;;;;4987841;28;20060;-84
2023/09/12 10:23:08;;;;;;;5.95;2.97;;;22.10;99.90;;;;;;4979398;28;20050;-87
2023/09/12 10:25:36;;;;;;;3.85;2.38;;;22.20;99.90;;;;;;5008235;28;20068;-87
2023/09/12 10:28:04;;;;;;;3.17;2.50;;;22.30;99.90;;;;;;4996169;28;20026;-86
2023/09/12 10:30:30;;;;;;;4.80;2.38;;;22.30;99.90;;;;;;4990670;28;20042;-87
2023/09/12 10:32:57;;;;;;;4.40;2.33;;;22.40;99.90;;;;;;4990563;28;20478;-85
2023/09/12 10:35:23;;;;;;;4.63;2.40;;;22.50;99.90;;;;;;4993692;28;20023;-88
2023/09/12 10:37:50;;;;;;;6.25;2.22;;;22.60;99.90;;;;;;4992107;28;20080;-87
2023/09/12 10:40:17;;;;;;;3.95;2.00;;;22.60;99.90;;;;;;5008060;28;20029;-86
2023/09/12 10:42:44;;;;;;;4.45;2.13;;;22.40;99.90;;;;;;5013161;28;20037;-85
2023/09/12 10:45:10;;;;;;;10.07;2.53;;;22.30;99.90;;;;;;5013153;28;20029;-89
2023/09/12 10:47:36;;;;;;;3.53;1.85;;;22.40;99.90;;;;;;5011945;28;20034;-89
2023/09/12 10:50:02;;;;;;;5.40;2.33;;;22.50;99.90;;;;;;5012810;28;20080;-89
2023/09/12 10:52:29;;;;;;;4.88;1.90;;;22.80;99.90;;;;;;5013167;28;20026;-88
2023/09/12 10:54:55;;;;;;;2.92;1.63;;;22.90;99.90;;;;;;4994404;28;20434;-88
2023/09/12 10:57:21;;;;;;;6.70;1.80;;;23.00;99.90;;;;;;4993380;28;20058;-87
2023/09/12 11:00:08;;;;;;;2.70;1.70;;;22.70;99.90;;;;;;4993291;28;20037;-85
2023/09/12 11:02:35;;;;;;;3.70;1.77;;;22.80;99.90;;;;;;4994575;28;20378;-84
2023/09/12 11:05:05;;;;;;;2.10;1.70;;;22.90;99.90;;;;;;4992685;28;20166;-84
2023/09/12 11:07:32;;;;;;;5.63;1.70;;;23.10;99.90;;;;;;4993658;28;20092;-86
2023/09/12 11:10:16;;;;;;;3.33;1.83;;;22.90;99.90;;;;;;4992785;28;20014;-85
2023/09/12 11:12:43;;;;;;;2.90;1.48;;;23.10;99.90;;;;;;4991465;28;20026;-87
2023/09/12 11:15:10;;;;;;;3.83;1.80;;;23.10;99.90;;;;;;4993040;28;20562;-85
2023/09/12 11:17:49;;;;;;;4.30;1.60;;;23.20;99.90;;;;;;4991863;28;20100;-84
2023/09/12 11:20:16;;;;;;;2.45;1.50;;;23.00;99.90;;;;;;4993010;28;20481;-84
2023/09/12 11:22:43;;;;;;;4.67;1.33;;;23.10;99.90;;;;;;4987037;28;20038;-88
2023/09/12 11:25:18;;;;;;;2.58;1.73;;;23.10;99.90;;;;;;4977717;28;20868;-87
2023/09/12 11:27:50;;;;;;;2.78;1.50;;;23.10;99.90;;;;;;4993871;28;20073;-88
2023/09/12 11:30:17;;;;;;;4.32;1.75;;;23.20;99.90;;;;;;4994016;28;20482;-88
2023/09/12 11:32:45;;;;;;;2.53;1.55;;;23.00;99.90;;;;;;5011113;28;20058;-86
2023/09/12 11:35:12;;;;;;;3.67;1.80;;;22.70;99.90;;;;;;5012399;28;20034;-86
2023/09/12 11:37:38;;;;;;;3.53;1.87;;;22.80;99.90;;;;;;5012083;28;20025;-86
2023/09/12 11:40:45;;;;;;;4.10;1.50;;;22.80;99.90;;;;;;5012921;28;20390;-84
2023/09/12 11:43:25;;;;;;;2.17;1.77;;;23.20;99.90;;;;;;5001968;28;20026;-89
2023/09/12 11:45:51;;;;;;;3.67;1.83;;;23.10;99.90;;;;;;4992550;28;20038;-88
2023/09/12 11:48:17;;;;;;;2.75;1.60;;;22.80;99.90;;;;;;4992482;28;20030;-85
2023/09/12 11:50:53;;;;;;;2.65;1.80;;;23.00;99.90;;;;;;4992328;28;20022;-84
2023/09/12 11:53:22;;;;;;;2.42;1.52;;;23.20;99.90;;;;;;4992459;28;20150;-84
2023/09/12 11:55:51;;;;;;;3.85;1.50;;;23.10;99.90;;;;;;4992500;28;20026;-85
2023/09/12 11:58:17;;;;;;;45.63;3.20;;;23.20;99.90;;;;;;4990872;28;20042;-88
2023/09/12 12:00:54;;;;;;;10.85;2.00;;;23.30;99.90;;;;;;4990768;28;20026;-85
2023/09/12 12:03:24;;;;;;;7.70;1.73;;;23.10;99.90;;;;;;4972675;28;20027;-84
2023/09/12 12:05:50;;;;;;;3.55;1.70;;;23.20;99.90;;;;;;4972624;28;20161;-90
2023/09/12 12:08:16;;;;;;;2.13;1.67;;;23.30;99.90;;;;;;4971523;28;20070;-88
2023/09/12 12:10:42;;;;;;;9.30;1.73;;;23.30;99.90;;;;;;4972328;28;20034;-85
2023/09/12 12:13:12;;;;;;;6.82;1.48;;;23.10;99.90;;;;;;4972130;28;20030;-88
2023/09/12 12:15:38;;;;;;;5.35;1.67;;;23.20;99.90;;;;;;4973438;28;20034;-84
2023/09/12 12:18:04;;;;;;;3.65;1.60;;;23.40;99.90;;;;;;4975984;28;20026;-86
2023/09/12 12:20:30;;;;;;;3.10;1.50;;;23.40;99.90;;;;;;4991744;28;20414;-87
2023/09/12 12:22:56;;;;;;;3.70;1.65;;;23.40;99.90;;;;;;4990377;28;20034;-84
2023/09/12 12:25:22;;;;;;;2.97;1.60;;;23.50;99.90;;;;;;4991908;28;20058;-88
2023/09/12 12:27:48;;;;;;;2.85;1.40;;;23.60;99.90;;;;;;4991475;28;20090;-88
2023/09/12 12:30:14;;;;;;;5.28;1.60;;;23.40;99.90;;;;;;4989643;28;20117;-84
2023/09/12 12:32:41;;;;;;;4.53;1.52;;;23.10;99.90;;;;;;4989317;28;20035;-85
2023/09/12 12:35:08;;;;;;;1.90;1.40;;;23.30;99.90;;;;;;4989243;28;20034;-84
2023/09/12 12:37:34;;;;;;;2.47;1.58;;;23.50;99.90;;;;;;4986254;28;20035;-88
2023/09/12 12:40:00;;;;;;;4.68;1.90;;;23.60;99.90;;;;;;4971969;28;20270;-89
2023/09/12 12:42:38;;;;;;;3.72;1.90;;;23.80;99.90;;;;;;4983206;28;20026;-84
2023/09/12 12:45:14;;;;;;;3.72;1.52;;;23.80;99.90;;;;;;4990700;28;20402;-84